sensor_id;sensor_type;location;lat;lon;timestamp;P1;durP1;ratioP1;P2;durP2;ratioP2
63379;SDS011;53160;55.014;73.156;2022-10-12T00:01:55;14.60;;;13.20;;
63379;SDS011;53160;55.014;73.156;2022-10-12T00:04:21;11.80;;;11.00;;
63379;SDS011;53160;55.014;73.156;2022-10-12T00:06:47;9.75;;;9.75;;
63379;SDS011;53160;55.014;73.156;2022-10-12T00:09:14;17.40;;;13.20;;
63379;SDS011;53160;55.014;73.156;2022-10-12T00:11:40;16.60;;;15.60;;
63379;SDS011;53160;55.014;73.156;2022-10-12T00:14:06;12.20;;;11.40;;
63379;SDS011;53160;55.014;73.156;2022-10-12T00:16:32;15.20;;;15.00;;
63379;SDS011;53160;55.014;73.156;2022-10-12T00:18:59;14.60;;;13.80;;
63379;SDS011;53160;55.014;73.156;2022-10-12T00:21:26;14.60;;;13.80;;
63379;SDS011;53160;55.014;73.156;2022-10-12T00:23:55;13.40;;;12.20;;
63379;SDS011;53160;55.014;73.156;2022-10-12T00:26:22;16.60;;;16.60;;
63379;SDS011;53160;55.014;73.156;2022-10-12T00:28:50;15.00;;;15.00;;
63379;SDS011;53160;55.014;73.156;2022-10-12T00:31:19;16.20;;;16.20;;
63379;SDS011;53160;55.014;73.156;2022-10-12T00:33:45;11.80;;;11.80;;
63379;SDS011;53160;55.014;73.156;2022-10-12T00:38:49;12.20;;;11.00;;
63379;SDS011;53160;55.014;73.156;2022-10-12T00:41:16;14.20;;;12.80;;
63379;SDS011;53160;55.014;73.156;2022-10-12T00:43:43;15.00;;;14.60;;
63379;SDS011;53160;55.014;73.156;2022-10-12T00:48:41;4.80;;;3.60;;
63379;SDS011;53160;55.014;73.156;2022-10-12T00:51:09;14.20;;;13.40;;
63379;SDS011;53160;55.014;73.156;2022-10-12T00:53:44;14.40;;;13.60;;
63379;SDS011;53160;55.014;73.156;2022-10-12T00:56:15;18.20;;;17.60;;
63379;SDS011;53160;55.014;73.156;2022-10-12T00:58:48;19.20;;;17.20;;
63379;SDS011;53160;55.014;73.156;2022-10-12T01:01:14;13.40;;;13.00;;
63379;SDS011;53160;55.014;73.156;2022-10-12T01:03:41;16.40;;;16.40;;
63379;SDS011;53160;55.014;73.156;2022-10-12T01:06:08;15.60;;;14.40;;
63379;SDS011;53160;55.014;73.156;2022-10-12T01:08:45;16.60;;;16.00;;
63379;SDS011;53160;55.014;73.156;2022-10-12T01:11:12;17.40;;;16.00;;
63379;SDS011;53160;55.014;73.156;2022-10-12T01:13:38;14.00;;;13.25;;
63379;SDS011;53160;55.014;73.156;2022-10-12T01:16:12;14.40;;;13.40;;
63379;SDS011;53160;55.014;73.156;2022-10-12T01:23:39;20.20;;;17.40;;
63379;SDS011;53160;55.014;73.156;2022-10-12T01:26:19;17.40;;;17.00;;
63379;SDS011;53160;55.014;73.156;2022-10-12T01:34:01;15.20;;;14.40;;
63379;SDS011;53160;55.014;73.156;2022-10-12T01:36:34;16.60;;;16.00;;
63379;SDS011;53160;55.014;73.156;2022-10-12T01:39:13;16.40;;;14.60;;
63379;SDS011;53160;55.014;73.156;2022-10-12T01:41:48;21.20;;;18.40;;
63379;SDS011;53160;55.014;73.156;2022-10-12T01:44:20;18.40;;;16.80;;
63379;SDS011;53160;55.014;73.156;2022-10-12T01:46:47;13.80;;;13.00;;
63379;SDS011;53160;55.014;73.156;2022-10-12T01:49:14;18.00;;;17.20;;
63379;SDS011;53160;55.014;73.156;2022-10-12T01:56:46;16.80;;;16.80;;
63379;SDS011;53160;55.014;73.156;2022-10-12T02:04:54;17.00;;;16.00;;
63379;SDS011;53160;55.014;73.156;2022-10-12T02:07:26;18.60;;;18.20;;
63379;SDS011;53160;55.014;73.156;2022-10-12T02:09:57;11.80;;;10.80;;
63379;SDS011;53160;55.014;73.156;2022-10-12T02:12:24;15.60;;;14.00;;
63379;SDS011;53160;55.014;73.156;2022-10-12T02:14:55;15.60;;;13.60;;
63379;SDS011;53160;55.014;73.156;2022-10-12T02:17:22;11.80;;;9.60;;
63379;SDS011;53160;55.014;73.156;2022-10-12T02:19:59;14.60;;;14.00;;
63379;SDS011;53160;55.014;73.156;2022-10-12T02:22:30;19.00;;;15.80;;
63379;SDS011;53160;55.014;73.156;2022-10-12T02:24:59;19.40;;;18.60;;
63379;SDS011;53160;55.014;73.156;2022-10-12T02:27:27;17.40;;;16.00;;
63379;SDS011;53160;55.014;73.156;2022-10-12T02:29:54;19.00;;;17.40;;
63379;SDS011;53160;55.014;73.156;2022-10-12T02:35:04;18.60;;;17.20;;
63379;SDS011;53160;55.014;73.156;2022-10-12T02:38:17;20.40;;;18.80;;
63379;SDS011;53160;55.014;73.156;2022-10-12T02:40:23;30.80;;;27.40;;
63379;SDS011;53160;55.014;73.156;2022-10-12T02:42:59;23.20;;;21.60;;
63379;SDS011;53160;55.014;73.156;2022-10-12T02:45:29;17.60;;;16.40;;
63379;SDS011;53160;55.014;73.156;2022-10-12T02:47:57;35.60;;;32.80;;
63379;SDS011;53160;55.014;73.156;2022-10-12T02:50:25;35.60;;;33.00;;
63379;SDS011;53160;55.014;73.156;2022-10-12T02:52:52;23.40;;;22.40;;
63379;SDS011;53160;55.014;73.156;2022-10-12T02:55:24;15.00;;;14.60;;
63379;SDS011;53160;55.014;73.156;2022-10-12T02:57:50;26.20;;;20.60;;
63379;SDS011;53160;55.014;73.156;2022-10-12T03:00:16;23.60;;;23.00;;
63379;SDS011;53160;55.014;73.156;2022-10-12T03:02:42;20.80;;;19.00;;
63379;SDS011;53160;55.014;73.156;2022-10-12T03:05:09;19.80;;;19.20;;
63379;SDS011;53160;55.014;73.156;2022-10-12T03:07:48;28.60;;;27.60;;
63379;SDS011;53160;55.014;73.156;2022-10-12T03:10:14;21.60;;;20.20;;
63379;SDS011;53160;55.014;73.156;2022-10-12T03:12:52;18.20;;;18.20;;
63379;SDS011;53160;55.014;73.156;2022-10-12T03:15:18;18.20;;;17.20;;
63379;SDS011;53160;55.014;73.156;2022-10-12T03:17:45;19.00;;;17.80;;
63379;SDS011;53160;55.014;73.156;2022-10-12T03:20:11;18.60;;;18.40;;
63379;SDS011;53160;55.014;73.156;2022-10-12T03:22:37;28.80;;;27.00;;
63379;SDS011;53160;55.014;73.156;2022-10-12T03:25:03;25.00;;;21.80;;
63379;SDS011;53160;55.014;73.156;2022-10-12T03:27:30;27.60;;;27.60;;
63379;SDS011;53160;55.014;73.156;2022-10-12T03:29:56;21.80;;;19.40;;
63379;SDS011;53160;55.014;73.156;2022-10-12T03:32:22;13.00;;;13.00;;
63379;SDS011;53160;55.014;73.156;2022-10-12T03:34:48;18.00;;;17.20;;
63379;SDS011;53160;55.014;73.156;2022-10-12T03:37:14;19.60;;;18.80;;
63379;SDS011;53160;55.014;73.156;2022-10-12T03:39:40;21.40;;;20.40;;
63379;SDS011;53160;55.014;73.156;2022-10-12T03:42:06;21.40;;;21.20;;
63379;SDS011;53160;55.014;73.156;2022-10-12T03:44:32;19.00;;;18.80;;
63379;SDS011;53160;55.014;73.156;2022-10-12T03:47:08;23.00;;;21.00;;
63379;SDS011;53160;55.014;73.156;2022-10-12T03:49:37;23.20;;;23.00;;
63379;SDS011;53160;55.014;73.156;2022-10-12T03:52:06;23.60;;;20.80;;
63379;SDS011;53160;55.014;73.156;2022-10-12T03:54:42;18.40;;;16.60;;
63379;SDS011;53160;55.014;73.156;2022-10-12T03:57:11;17.00;;;16.00;;
63379;SDS011;53160;55.014;73.156;2022-10-12T03:59:40;19.60;;;19.20;;
63379;SDS011;53160;55.014;73.156;2022-10-12T04:02:06;20.00;;;18.60;;
63379;SDS011;53160;55.014;73.156;2022-10-12T04:04:32;44.80;;;39.00;;
63379;SDS011;53160;55.014;73.156;2022-10-12T04:06:59;26.40;;;24.20;;
63379;SDS011;53160;55.014;73.156;2022-10-12T04:09:25;22.00;;;21.20;;
63379;SDS011;53160;55.014;73.156;2022-10-12T04:11:51;24.40;;;20.20;;
63379;SDS011;53160;55.014;73.156;2022-10-12T04:14:17;29.40;;;27.00;;
63379;SDS011;53160;55.014;73.156;2022-10-12T04:16:55;19.20;;;17.60;;
63379;SDS011;53160;55.014;73.156;2022-10-12T04:19:21;21.40;;;19.80;;
63379;SDS011;53160;55.014;73.156;2022-10-12T04:21:57;22.40;;;19.60;;
63379;SDS011;53160;55.014;73.156;2022-10-12T04:24:23;21.80;;;21.40;;
63379;SDS011;53160;55.014;73.156;2022-10-12T04:26:49;27.20;;;27.20;;
63379;SDS011;53160;55.014;73.156;2022-10-12T04:29:15;23.80;;;21.60;;
63379;SDS011;53160;55.014;73.156;2022-10-12T04:31:41;20.40;;;20.20;;
63379;SDS011;53160;55.014;73.156;2022-10-12T04:34:08;25.60;;;22.80;;
63379;SDS011;53160;55.014;73.156;2022-10-12T04:36:34;20.00;;;20.00;;
63379;SDS011;53160;55.014;73.156;2022-10-12T04:39:00;17.40;;;17.40;;
63379;SDS011;53160;55.014;73.156;2022-10-12T04:41:26;25.40;;;22.80;;
63379;SDS011;53160;55.014;73.156;2022-10-12T04:43:53;22.80;;;22.20;;
63379;SDS011;53160;55.014;73.156;2022-10-12T04:46:24;21.40;;;20.40;;
63379;SDS011;53160;55.014;73.156;2022-10-12T04:48:52;20.00;;;19.20;;
63379;SDS011;53160;55.014;73.156;2022-10-12T04:51:18;21.00;;;19.80;;
63379;SDS011;53160;55.014;73.156;2022-10-12T04:53:45;21.40;;;19.00;;
63379;SDS011;53160;55.014;73.156;2022-10-12T04:56:11;20.00;;;20.00;;
63379;SDS011;53160;55.014;73.156;2022-10-12T04:58:37;22.60;;;20.20;;
63379;SDS011;53160;55.014;73.156;2022-10-12T05:01:03;20.60;;;19.20;;
63379;SDS011;53160;55.014;73.156;2022-10-12T05:03:29;23.40;;;19.80;;
63379;SDS011;53160;55.014;73.156;2022-10-12T05:05:55;11.00;;;11.00;;
63379;SDS011;53160;55.014;73.156;2022-10-12T05:08:22;18.60;;;18.20;;
63379;SDS011;53160;55.014;73.156;2022-10-12T05:10:48;23.20;;;22.40;;
63379;SDS011;53160;55.014;73.156;2022-10-12T05:13:14;23.80;;;21.80;;
63379;SDS011;53160;55.014;73.156;2022-10-12T05:15:42;21.00;;;19.20;;
63379;SDS011;53160;55.014;73.156;2022-10-12T05:18:09;17.40;;;17.00;;
63379;SDS011;53160;55.014;73.156;2022-10-12T05:20:35;24.00;;;22.20;;
63379;SDS011;53160;55.014;73.156;2022-10-12T05:23:02;20.40;;;19.00;;
63379;SDS011;53160;55.014;73.156;2022-10-12T05:25:28;20.60;;;20.60;;
63379;SDS011;53160;55.014;73.156;2022-10-12T05:27:55;18.00;;;16.50;;
63379;SDS011;53160;55.014;73.156;2022-10-12T05:30:22;23.40;;;22.60;;
63379;SDS011;53160;55.014;73.156;2022-10-12T05:32:48;22.40;;;22.00;;
63379;SDS011;53160;55.014;73.156;2022-10-12T05:35:24;23.00;;;22.80;;
63379;SDS011;53160;55.014;73.156;2022-10-12T05:37:50;24.20;;;23.00;;
63379;SDS011;53160;55.014;73.156;2022-10-12T05:40:17;23.40;;;21.60;;
63379;SDS011;53160;55.014;73.156;2022-10-12T05:42:44;58.20;;;48.40;;
63379;SDS011;53160;55.014;73.156;2022-10-12T05:45:10;48.60;;;41.80;;
63379;SDS011;53160;55.014;73.156;2022-10-12T05:47:36;31.80;;;29.40;;
63379;SDS011;53160;55.014;73.156;2022-10-12T05:50:06;21.80;;;20.60;;
63379;SDS011;53160;55.014;73.156;2022-10-12T05:52:32;25.80;;;20.40;;
63379;SDS011;53160;55.014;73.156;2022-10-12T05:54:58;23.40;;;22.20;;
63379;SDS011;53160;55.014;73.156;2022-10-12T05:57:25;30.20;;;27.60;;
63379;SDS011;53160;55.014;73.156;2022-10-12T05:59:54;30.00;;;28.80;;
63379;SDS011;53160;55.014;73.156;2022-10-12T06:02:20;30.00;;;28.80;;
63379;SDS011;53160;55.014;73.156;2022-10-12T06:04:46;28.80;;;27.40;;
63379;SDS011;53160;55.014;73.156;2022-10-12T06:07:19;30.80;;;30.60;;
63379;SDS011;53160;55.014;73.156;2022-10-12T06:09:45;30.20;;;29.40;;
63379;SDS011;53160;55.014;73.156;2022-10-12T06:12:12;26.00;;;24.80;;
63379;SDS011;53160;55.014;73.156;2022-10-12T06:14:38;28.60;;;27.00;;
63379;SDS011;53160;55.014;73.156;2022-10-12T06:17:04;25.40;;;24.80;;
63379;SDS011;53160;55.014;73.156;2022-10-12T06:19:31;25.40;;;21.40;;
63379;SDS011;53160;55.014;73.156;2022-10-12T06:21:58;29.40;;;28.60;;
63379;SDS011;53160;55.014;73.156;2022-10-12T06:24:24;25.20;;;24.40;;
63379;SDS011;53160;55.014;73.156;2022-10-12T06:26:58;25.00;;;24.00;;
63379;SDS011;53160;55.014;73.156;2022-10-12T06:29:24;23.60;;;22.20;;
63379;SDS011;53160;55.014;73.156;2022-10-12T06:31:50;27.00;;;26.20;;
63379;SDS011;53160;55.014;73.156;2022-10-12T06:34:20;20.20;;;19.60;;
63379;SDS011;53160;55.014;73.156;2022-10-12T06:36:47;24.60;;;23.80;;
63379;SDS011;53160;55.014;73.156;2022-10-12T06:39:18;24.20;;;23.80;;
63379;SDS011;53160;55.014;73.156;2022-10-12T06:41:44;32.80;;;30.60;;
63379;SDS011;53160;55.014;73.156;2022-10-12T06:44:11;24.60;;;24.60;;
63379;SDS011;53160;55.014;73.156;2022-10-12T06:46:38;34.80;;;33.60;;
63379;SDS011;53160;55.014;73.156;2022-10-12T06:49:04;32.60;;;30.80;;
63379;SDS011;53160;55.014;73.156;2022-10-12T06:51:31;33.80;;;31.40;;
63379;SDS011;53160;55.014;73.156;2022-10-12T06:53:57;29.20;;;28.40;;
63379;SDS011;53160;55.014;73.156;2022-10-12T06:56:23;30.60;;;29.00;;
63379;SDS011;53160;55.014;73.156;2022-10-12T06:58:56;49.40;;;41.60;;
63379;SDS011;53160;55.014;73.156;2022-10-12T07:01:22;46.20;;;39.60;;
63379;SDS011;53160;55.014;73.156;2022-10-12T07:03:55;52.00;;;43.00;;
63379;SDS011;53160;55.014;73.156;2022-10-12T07:06:21;40.60;;;34.60;;
63379;SDS011;53160;55.014;73.156;2022-10-12T07:08:47;24.00;;;23.00;;
63379;SDS011;53160;55.014;73.156;2022-10-12T07:11:15;25.00;;;23.60;;
63379;SDS011;53160;55.014;73.156;2022-10-12T07:13:41;35.40;;;30.40;;
63379;SDS011;53160;55.014;73.156;2022-10-12T07:16:07;31.00;;;28.40;;
63379;SDS011;53160;55.014;73.156;2022-10-12T07:18:34;24.80;;;24.20;;
63379;SDS011;53160;55.014;73.156;2022-10-12T07:21:00;63.80;;;51.40;;
63379;SDS011;53160;55.014;73.156;2022-10-12T07:23:28;38.20;;;34.00;;
63379;SDS011;53160;55.014;73.156;2022-10-12T07:25:55;47.20;;;39.60;;
63379;SDS011;53160;55.014;73.156;2022-10-12T07:28:21;25.80;;;25.80;;
63379;SDS011;53160;55.014;73.156;2022-10-12T07:30:47;24.40;;;24.40;;
63379;SDS011;53160;55.014;73.156;2022-10-12T07:33:13;22.00;;;22.00;;
63379;SDS011;53160;55.014;73.156;2022-10-12T07:35:39;39.20;;;33.00;;
63379;SDS011;53160;55.014;73.156;2022-10-12T07:38:06;47.20;;;40.80;;
63379;SDS011;53160;55.014;73.156;2022-10-12T07:40:43;55.60;;;44.60;;
63379;SDS011;53160;55.014;73.156;2022-10-12T07:43:09;50.40;;;40.60;;
63379;SDS011;53160;55.014;73.156;2022-10-12T07:45:36;32.60;;;29.40;;
63379;SDS011;53160;55.014;73.156;2022-10-12T07:48:02;33.20;;;32.00;;
63379;SDS011;53160;55.014;73.156;2022-10-12T07:50:28;29.60;;;29.40;;
63379;SDS011;53160;55.014;73.156;2022-10-12T07:52:54;36.40;;;33.60;;
63379;SDS011;53160;55.014;73.156;2022-10-12T07:55:21;29.40;;;29.20;;
63379;SDS011;53160;55.014;73.156;2022-10-12T07:57:47;35.00;;;32.20;;
63379;SDS011;53160;55.014;73.156;2022-10-12T08:00:13;45.20;;;38.00;;
63379;SDS011;53160;55.014;73.156;2022-10-12T08:02:43;49.20;;;39.20;;
63379;SDS011;53160;55.014;73.156;2022-10-12T08:05:09;34.80;;;32.40;;
63379;SDS011;53160;55.014;73.156;2022-10-12T08:07:40;37.00;;;32.80;;
63379;SDS011;53160;55.014;73.156;2022-10-12T08:10:13;36.80;;;33.60;;
63379;SDS011;53160;55.014;73.156;2022-10-12T08:12:44;58.80;;;45.40;;
63379;SDS011;53160;55.014;73.156;2022-10-12T08:15:11;66.40;;;51.80;;
63379;SDS011;53160;55.014;73.156;2022-10-12T08:17:38;77.60;;;70.00;;
63379;SDS011;53160;55.014;73.156;2022-10-12T08:20:05;62.20;;;48.60;;
63379;SDS011;53160;55.014;73.156;2022-10-12T08:22:31;63.20;;;50.20;;
63379;SDS011;53160;55.014;73.156;2022-10-12T08:24:57;17.80;;;15.60;;
63379;SDS011;53160;55.014;73.156;2022-10-12T08:27:33;34.20;;;31.60;;
63379;SDS011;53160;55.014;73.156;2022-10-12T08:30:00;54.00;;;45.00;;
63379;SDS011;53160;55.014;73.156;2022-10-12T08:32:26;48.20;;;40.40;;
63379;SDS011;53160;55.014;73.156;2022-10-12T08:34:53;35.00;;;33.40;;
63379;SDS011;53160;55.014;73.156;2022-10-12T08:37:19;39.20;;;33.20;;
63379;SDS011;53160;55.014;73.156;2022-10-12T08:39:48;32.20;;;31.40;;
63379;SDS011;53160;55.014;73.156;2022-10-12T08:47:45;40.00;;;35.00;;
63379;SDS011;53160;55.014;73.156;2022-10-12T08:50:20;33.60;;;32.20;;
63379;SDS011;53160;55.014;73.156;2022-10-12T08:52:51;24.40;;;24.00;;
63379;SDS011;53160;55.014;73.156;2022-10-12T08:57:49;28.40;;;27.20;;
63379;SDS011;53160;55.014;73.156;2022-10-12T09:00:20;20.40;;;18.60;;
63379;SDS011;53160;55.014;73.156;2022-10-12T09:02:52;24.80;;;23.60;;
63379;SDS011;53160;55.014;73.156;2022-10-12T09:10:56;26.60;;;24.60;;
63379;SDS011;53160;55.014;73.156;2022-10-12T09:16:05;24.20;;;24.00;;
63379;SDS011;53160;55.014;73.156;2022-10-12T09:18:42;25.00;;;24.60;;
63379;SDS011;53160;55.014;73.156;2022-10-12T09:21:15;47.80;;;40.40;;
63379;SDS011;53160;55.014;73.156;2022-10-12T09:23:42;45.20;;;37.80;;
63379;SDS011;53160;55.014;73.156;2022-10-12T09:28:37;29.20;;;28.00;;
63379;SDS011;53160;55.014;73.156;2022-10-12T09:31:06;22.20;;;22.00;;
63379;SDS011;53160;55.014;73.156;2022-10-12T09:33:40;25.40;;;24.80;;
63379;SDS011;53160;55.014;73.156;2022-10-12T09:36:11;24.20;;;24.00;;
63379;SDS011;53160;55.014;73.156;2022-10-12T09:38:39;25.20;;;24.40;;
63379;SDS011;53160;55.014;73.156;2022-10-12T09:41:10;24.20;;;24.20;;
63379;SDS011;53160;55.014;73.156;2022-10-12T09:43:42;21.60;;;21.20;;
63379;SDS011;53160;55.014;73.156;2022-10-12T09:46:09;22.20;;;22.20;;
63379;SDS011;53160;55.014;73.156;2022-10-12T09:48:38;20.20;;;19.80;;
63379;SDS011;53160;55.014;73.156;2022-10-12T09:51:20;23.60;;;22.80;;
63379;SDS011;53160;55.014;73.156;2022-10-12T09:53:47;24.00;;;23.80;;
63379;SDS011;53160;55.014;73.156;2022-10-12T09:56:25;24.80;;;24.60;;
63379;SDS011;53160;55.014;73.156;2022-10-12T09:59:16;21.40;;;21.00;;
63379;SDS011;53160;55.014;73.156;2022-10-12T10:02:03;25.40;;;25.00;;
63379;SDS011;53160;55.014;73.156;2022-10-12T10:04:32;23.60;;;23.60;;
63379;SDS011;53160;55.014;73.156;2022-10-12T10:09:45;23.20;;;23.20;;
63379;SDS011;53160;55.014;73.156;2022-10-12T10:14:55;20.20;;;19.20;;
63379;SDS011;53160;55.014;73.156;2022-10-12T10:17:27;24.60;;;24.60;;
63379;SDS011;53160;55.014;73.156;2022-10-12T10:19:54;24.00;;;24.00;;
63379;SDS011;53160;55.014;73.156;2022-10-12T10:22:22;24.60;;;24.40;;
63379;SDS011;53160;55.014;73.156;2022-10-12T10:24:51;23.00;;;23.00;;
63379;SDS011;53160;55.014;73.156;2022-10-12T10:27:35;21.40;;;20.80;;
63379;SDS011;53160;55.014;73.156;2022-10-12T10:32:34;23.00;;;22.40;;
63379;SDS011;53160;55.014;73.156;2022-10-12T10:37:48;21.60;;;21.00;;
63379;SDS011;53160;55.014;73.156;2022-10-12T10:42:42;20.20;;;20.20;;
63379;SDS011;53160;55.014;73.156;2022-10-12T10:45:19;22.00;;;21.80;;
63379;SDS011;53160;55.014;73.156;2022-10-12T10:47:58;22.00;;;22.00;;
63379;SDS011;53160;55.014;73.156;2022-10-12T10:50:36;28.80;;;28.00;;
63379;SDS011;53160;55.014;73.156;2022-10-12T10:53:04;20.80;;;18.00;;
63379;SDS011;53160;55.014;73.156;2022-10-12T10:58:18;6.00;;;5.00;;
63379;SDS011;53160;55.014;73.156;2022-10-12T11:00:48;14.50;;;14.00;;
63379;SDS011;53160;55.014;73.156;2022-10-12T11:03:22;4.25;;;4.25;;
63379;SDS011;53160;55.014;73.156;2022-10-12T11:08:40;4.75;;;4.75;;
63379;SDS011;53160;55.014;73.156;2022-10-12T11:11:14;3.75;;;3.00;;
63379;SDS011;53160;55.014;73.156;2022-10-12T11:13:47;6.25;;;6.00;;
63379;SDS011;53160;55.014;73.156;2022-10-12T11:16:28;8.00;;;8.00;;
63379;SDS011;53160;55.014;73.156;2022-10-12T11:18:59;10.25;;;10.25;;
63379;SDS011;53160;55.014;73.156;2022-10-12T11:24:27;5.25;;;5.25;;
63379;SDS011;53160;55.014;73.156;2022-10-12T11:27:04;4.00;;;4.00;;
63379;SDS011;53160;55.014;73.156;2022-10-12T11:29:32;5.25;;;5.25;;
63379;SDS011;53160;55.014;73.156;2022-10-12T11:34:29;9.50;;;9.50;;
63379;SDS011;53160;55.014;73.156;2022-10-12T11:36:57;8.25;;;7.75;;
63379;SDS011;53160;55.014;73.156;2022-10-12T11:39:45;12.75;;;12.50;;
63379;SDS011;53160;55.014;73.156;2022-10-12T11:42:19;17.00;;;15.50;;
63379;SDS011;53160;55.014;73.156;2022-10-12T11:44:48;14.50;;;13.25;;
63379;SDS011;53160;55.014;73.156;2022-10-12T11:47:16;11.25;;;11.25;;
63379;SDS011;53160;55.014;73.156;2022-10-12T11:49:54;14.75;;;13.50;;
63379;SDS011;53160;55.014;73.156;2022-10-12T11:52:26;11.25;;;11.00;;
63379;SDS011;53160;55.014;73.156;2022-10-12T11:57:33;13.25;;;12.75;;
63379;SDS011;53160;55.014;73.156;2022-10-12T12:00:05;10.60;;;10.60;;
63379;SDS011;53160;55.014;73.156;2022-10-12T12:02:41;13.50;;;12.50;;
63379;SDS011;53160;55.014;73.156;2022-10-12T12:05:11;5.00;;;5.00;;
63379;SDS011;53160;55.014;73.156;2022-10-12T12:07:48;12.00;;;11.25;;
63379;SDS011;53160;55.014;73.156;2022-10-12T12:18:12;43.60;;;37.40;;
63379;SDS011;53160;55.014;73.156;2022-10-12T12:25:44;31.20;;;27.60;;
63379;SDS011;53160;55.014;73.156;2022-10-12T12:28:18;33.80;;;30.40;;
63379;SDS011;53160;55.014;73.156;2022-10-12T12:31:04;45.00;;;34.80;;
63379;SDS011;53160;55.014;73.156;2022-10-12T12:33:36;33.60;;;26.60;;
63379;SDS011;53160;55.014;73.156;2022-10-12T12:38:58;37.80;;;32.60;;
63379;SDS011;53160;55.014;73.156;2022-10-12T12:44:33;37.60;;;33.00;;
63379;SDS011;53160;55.014;73.156;2022-10-12T12:49:26;38.80;;;34.40;;
63379;SDS011;53160;55.014;73.156;2022-10-12T12:51:57;37.40;;;30.80;;
63379;SDS011;53160;55.014;73.156;2022-10-12T12:54:24;33.20;;;29.20;;
63379;SDS011;53160;55.014;73.156;2022-10-12T13:09:59;39.80;;;34.00;;
63379;SDS011;53160;55.014;73.156;2022-10-12T13:15:28;38.00;;;33.60;;
63379;SDS011;53160;55.014;73.156;2022-10-12T13:20:30;42.60;;;36.80;;
63379;SDS011;53160;55.014;73.156;2022-10-12T13:22:57;37.80;;;33.40;;
63379;SDS011;53160;55.014;73.156;2022-10-12T13:25:26;38.40;;;34.20;;
63379;SDS011;53160;55.014;73.156;2022-10-12T13:28:05;33.80;;;32.40;;
63379;SDS011;53160;55.014;73.156;2022-10-12T13:30:35;36.60;;;32.40;;
63379;SDS011;53160;55.014;73.156;2022-10-12T13:35:39;31.40;;;29.80;;
63379;SDS011;53160;55.014;73.156;2022-10-12T13:43:31;37.20;;;33.20;;
63379;SDS011;53160;55.014;73.156;2022-10-12T13:45:59;30.60;;;29.00;;
63379;SDS011;53160;55.014;73.156;2022-10-12T13:48:25;32.60;;;30.60;;
63379;SDS011;53160;55.014;73.156;2022-10-12T13:50:53;31.60;;;30.20;;
63379;SDS011;53160;55.014;73.156;2022-10-12T13:53:19;34.80;;;32.80;;
63379;SDS011;53160;55.014;73.156;2022-10-12T13:55:50;34.20;;;33.20;;
63379;SDS011;53160;55.014;73.156;2022-10-12T13:58:21;33.60;;;31.80;;
63379;SDS011;53160;55.014;73.156;2022-10-12T14:00:49;37.60;;;33.20;;
63379;SDS011;53160;55.014;73.156;2022-10-12T14:03:15;27.80;;;25.60;;
63379;SDS011;53160;55.014;73.156;2022-10-12T14:05:44;34.20;;;33.00;;
63379;SDS011;53160;55.014;73.156;2022-10-12T14:08:14;26.20;;;25.40;;
63379;SDS011;53160;55.014;73.156;2022-10-12T14:10:41;35.40;;;34.00;;
63379;SDS011;53160;55.014;73.156;2022-10-12T14:13:13;38.00;;;35.60;;
63379;SDS011;53160;55.014;73.156;2022-10-12T14:15:40;39.80;;;35.20;;
63379;SDS011;53160;55.014;73.156;2022-10-12T14:21:05;35.20;;;33.80;;
63379;SDS011;53160;55.014;73.156;2022-10-12T14:23:45;36.80;;;34.40;;
63379;SDS011;53160;55.014;73.156;2022-10-12T14:32:02;42.60;;;33.40;;
63379;SDS011;53160;55.014;73.156;2022-10-12T14:34:34;35.80;;;32.20;;
63379;SDS011;53160;55.014;73.156;2022-10-12T14:37:05;35.00;;;34.40;;
63379;SDS011;53160;55.014;73.156;2022-10-12T14:39:31;34.00;;;32.00;;
63379;SDS011;53160;55.014;73.156;2022-10-12T14:42:01;38.00;;;35.00;;
63379;SDS011;53160;55.014;73.156;2022-10-12T14:44:28;34.20;;;33.60;;
63379;SDS011;53160;55.014;73.156;2022-10-12T14:47:24;41.20;;;35.40;;
63379;SDS011;53160;55.014;73.156;2022-10-12T14:49:52;33.60;;;31.20;;
63379;SDS011;53160;55.014;73.156;2022-10-12T14:54:50;36.80;;;34.00;;
63379;SDS011;53160;55.014;73.156;2022-10-12T14:57:17;32.00;;;29.60;;
63379;SDS011;53160;55.014;73.156;2022-10-12T14:59:51;37.40;;;33.60;;
63379;SDS011;53160;55.014;73.156;2022-10-12T15:02:18;38.60;;;33.20;;
63379;SDS011;53160;55.014;73.156;2022-10-12T15:04:45;31.00;;;30.00;;
63379;SDS011;53160;55.014;73.156;2022-10-12T15:07:20;36.40;;;34.20;;
63379;SDS011;53160;55.014;73.156;2022-10-12T15:09:46;16.40;;;16.00;;
63379;SDS011;53160;55.014;73.156;2022-10-12T15:12:14;36.40;;;34.80;;
63379;SDS011;53160;55.014;73.156;2022-10-12T15:14:47;36.00;;;32.60;;
63379;SDS011;53160;55.014;73.156;2022-10-12T15:17:23;44.00;;;35.40;;
63379;SDS011;53160;55.014;73.156;2022-10-12T15:19:49;37.20;;;34.20;;
63379;SDS011;53160;55.014;73.156;2022-10-12T15:22:21;35.40;;;32.60;;
63379;SDS011;53160;55.014;73.156;2022-10-12T15:24:53;36.20;;;32.20;;
63379;SDS011;53160;55.014;73.156;2022-10-12T15:27:20;38.20;;;34.00;;
63379;SDS011;53160;55.014;73.156;2022-10-12T15:29:46;36.80;;;32.40;;
63379;SDS011;53160;55.014;73.156;2022-10-12T15:32:22;28.40;;;27.60;;
63379;SDS011;53160;55.014;73.156;2022-10-12T15:34:48;30.40;;;29.80;;
63379;SDS011;53160;55.014;73.156;2022-10-12T15:37:15;34.80;;;32.20;;
63379;SDS011;53160;55.014;73.156;2022-10-12T15:39:42;42.40;;;36.60;;
63379;SDS011;53160;55.014;73.156;2022-10-12T15:42:18;41.00;;;35.40;;
63379;SDS011;53160;55.014;73.156;2022-10-12T15:44:44;44.40;;;41.20;;
63379;SDS011;53160;55.014;73.156;2022-10-12T15:47:10;42.60;;;38.00;;
63379;SDS011;53160;55.014;73.156;2022-10-12T15:49:37;50.40;;;42.20;;
63379;SDS011;53160;55.014;73.156;2022-10-12T15:52:03;50.60;;;41.80;;
63379;SDS011;53160;55.014;73.156;2022-10-12T15:54:40;45.20;;;39.60;;
63379;SDS011;53160;55.014;73.156;2022-10-12T15:57:06;52.40;;;42.80;;
63379;SDS011;53160;55.014;73.156;2022-10-12T15:59:36;53.60;;;42.60;;
63379;SDS011;53160;55.014;73.156;2022-10-12T16:02:12;47.60;;;40.20;;
63379;SDS011;53160;55.014;73.156;2022-10-12T16:04:39;53.00;;;41.20;;
63379;SDS011;53160;55.014;73.156;2022-10-12T16:07:05;51.20;;;43.00;;
63379;SDS011;53160;55.014;73.156;2022-10-12T16:09:31;44.00;;;37.60;;
63379;SDS011;53160;55.014;73.156;2022-10-12T16:12:07;36.00;;;32.20;;
63379;SDS011;53160;55.014;73.156;2022-10-12T16:14:33;47.00;;;39.20;;
63379;SDS011;53160;55.014;73.156;2022-10-12T16:16:59;43.40;;;39.40;;
63379;SDS011;53160;55.014;73.156;2022-10-12T16:19:29;45.80;;;38.60;;
63379;SDS011;53160;55.014;73.156;2022-10-12T16:22:00;54.00;;;44.20;;
63379;SDS011;53160;55.014;73.156;2022-10-12T16:24:27;58.80;;;48.00;;
63379;SDS011;53160;55.014;73.156;2022-10-12T16:26:54;50.20;;;41.40;;
63379;SDS011;53160;55.014;73.156;2022-10-12T16:29:20;46.60;;;40.80;;
63379;SDS011;53160;55.014;73.156;2022-10-12T16:31:46;44.40;;;38.20;;
63379;SDS011;53160;55.014;73.156;2022-10-12T16:34:12;35.00;;;33.80;;
63379;SDS011;53160;55.014;73.156;2022-10-12T16:36:38;35.20;;;31.80;;